Dienstag 11.12.2018 14h37  

Database error: Invalid SQL: insert into metar (ICAO,RAW,ts,last) values('KGSM','KGSM 121154Z 14015KT 07SM HZ FEW070 24/23 A2994 RMK SEAS 1-3' ','20181212125400','20181211143700');
error: 1064 (You have an error in your SQL syntax; check the manual that corresponds to your MySQL server version for the right syntax to use near '20181212125400','20181211143700')' at line 2)
Session halted.